Bayerns grosse Airshow

motor veste rechts h240

joomla templates top joomla templates template joomla

Notam

C3641/14 - CUSTOMS AVBL PPR, TEL 0049 9561 92098. 13 NOV 14:46 2014 UNTIL PERM. CREATED: 13 NOV 14:47 2014

Neue Wetteranzeige

Aktuelles Platzwetter Stand 27.07.2017 06:46Z

AvgMinMax
Windrichtung170140200Deg
Windgeschwindigkeit325kt
Sichtweite7000m
Temperatur12°C
Taupunkt12°C
Feuchte100%
QNH1010.8hPa
QFE957.5hPa
WolkenBKN004 OVC014

Aerodrome Terminal Information Service (ATIS) Coburg

METAR
EDQC 270627Z AUTO 16004KT 5000 BKN002 OVC013 12/12 Q1010=

METAR und TAF der Umgebung

[Quelle: ADDS]
METAR
EDDF 270620Z 18010KT 7000 -RADZ BKN004 17/16 Q1009 BECMG BKN005 =
EDDN 270620Z 11003KT 050V130 9999 SCT035 BKN045 14/13 Q1011 BECMG 20006KT =
EDDE 270620Z 21006KT CAVOK 15/13 Q1008 NOSIG =
TAF
EDDF 270500Z 2706/2812 20005KT 9999 BKN020 TEMPO 2706/2709 4000 RADZ BKN004 BECMG 2707/2710 23011KT SCT040 PROB40 TEMPO 2714/2724 SHRA SCT030TCU PROB30 TEMPO 2718/2723 TSRA BECMG 2718/2721 20005KT BECMG 2807/2810 23011KT =
EDDN 270500Z 2706/2806 10004KT 9999 SCT025 BECMG 2706/2708 20006KT PROB40 TEMPO 2708/2712 4500 -RADZ BKN012 BECMG 2709/2711 26007KT TEMPO 2715/2721 27015KT SHRA SCT015 BKN025TCU PROB30 TEMPO 2721/2802 28015KT 4000 TSRA SCT010 BKN020CB =
EDDE 270500Z 2706/2806 24009KT CAVOK PROB30 TEMPO 2708/2711 SHRA TEMPO 2715/2801 26015G25KT SHRA BKN020CB =
SR / SS: 03:40 / 19:07 UTC (EDQC 2017-07-27)

Wetterverlauf

Verkehrslandeplatz Coburg Brandensteinsebene
Tower
Zur Brandensteinsebene
96450 Coburg

AeroClub Logo 200px

Aero Club Coburg e. V.
Postfach 11 09
96401 Coburg